Townville, SC (29689)

8:31 AM EST on January 27, 2015 (GMT -0500)
Musser Fruit Farm | Change Station
CLOSE
Current Station
Personal Weather Station
Location: Seneca, SC
Elevation: 727 ft
Nearby Weather Stations

Elev 727 ft 34.60 °N, 82.88 °W | Updated 2 minutes ago

Clear
Clear
34.8 °F
Feels Like 31 °F
N
4.0
Wind Variable Wind from WSW
Gusts 7.0 mph

Today
High -- | Low -- °F
--% Chance of Precip.
Yesterday
High -- | Low -- °F
Precip. -- in
7:32 AM 5:55 PM
First Quarter, 54% visible
Pressure 29.86 in
Visibility 10.0 miles
Clouds Few 4600 ft
Windchill 31 °F
Dew Point 29 °F
Humidity 79%
Rainfall 0.00 in
Snow Depth Not available.
UV 0.0 out of 12
Pollen 1.50 out of 12
Air Quality Not available.
Flu Activity Not available.
METAR KCEU 271254Z AUTO 25006KT 10SM FEW046 01/M04 A2985 RMK AO2 SLP109 T00111044

More Conditions Fewer Conditions

Pressure 29.86 in
Visibility 10.0 miles
Clouds Few 4600 ft
Windchill 31 °F
Dew Point 29 °F
Humidity 79%
Rainfall 0.00 in
Snow Depth Not available.
UV 0.0 out of 12
Pollen 1.50 out of 12
Air Quality Not available.
Flu Activity Not available.
METAR KCEU 271254Z AUTO 25006KT 10SM FEW046 01/M04 A2985 RMK AO2 SLP109 T00111044

More Conditions Fewer Conditions

10-Day Weather Forecast

Almanac

Astronomy

Jan. 27, 2015 Rise Set
Actual Time
Civil Twilight
Nautical Twilight
Astronomical Twilight
Moon
Length of Visible Light
Length of Day
Tomorrow will be .
, % of the Moon is Illuminated

Today's Extremes

State Highs State Lows

Community

WunderPhotos

Upload Photos

1,790,614 photos uploaded!

WunderBlogs® & News

Nearby

Air Quality

  Air Quality AQ Index Pollutant
Not available.

Snow Depth

Station Depth Elevation

Earthquake Activity

City Distance Mag. Time & Date
Minimum magnitude displayed is 2.5.

Coastal Water Temperatures

Place Temperature

Nearby Weather Stations